Flight Track Log - Related Links

Times and Time Zones

All times are in EDT time to prevent confusion due to time zone crossing. See the N201YG flight status page for this flight to view local times or setup timezone preferences in your user account.

Time Position Orientation Groundspeed Altitude Reporting Facility
EDT Latitude Longitude Course Direction KTS MPH feet Rate Location/Type
Sat 05:05:53 PM 34.4192 -117.1586 44° Northeast 126 145 9,600  Level Los Angeles Center
Sat 05:09:53 PM 34.5372 -117.0214 40° Northeast 146 168 9,500 -20 Descending Los Angeles Center
Sat 05:10:52 PM 34.5689 -116.9889 45° Northeast 146 168 9,500  Level Los Angeles Center
Sat 05:11:52 PM 34.6003 -116.9514 46° Northeast 146 168 9,500 50 Level Los Angeles Center
Sat 05:12:52 PM 34.6297 -116.9139 44° Northeast 146 168 9,600 50 Climbing Los Angeles Center
Sat 05:13:52 PM 34.6633 -116.8739 43° Northeast 151 174 9,600 -50 Level Los Angeles Center
Sat 05:14:53 PM 34.6969 -116.8361 44° Northeast 156 180 9,500  Descending Los Angeles Center
Sat 05:15:53 PM 34.7308 -116.7961 43° Northeast 156 180 9,600  Climbing Los Angeles Center
Sat 05:16:53 PM 34.7644 -116.7583 43° Northeast 161 185 9,500 -50 Descending Los Angeles Center
Sat 05:17:52 PM 34.7978 -116.7208 43° Northeast 161 185 9,500  Level Los Angeles Center
Sat 05:18:53 PM 34.8314 -116.6831 43° Northeast 161 185 9,500 50 Level Los Angeles Center
Sat 05:19:53 PM 34.8650 -116.6453 41° Northeast 161 185 9,600  Climbing Los Angeles Center
Sat 05:20:53 PM 34.9006 -116.6075 41° Northeast 161 185 9,500 -50 Descending Los Angeles Center
Sat 05:21:53 PM 34.9342 -116.5722 43° Northeast 161 185 9,500 50 Level Los Angeles Center
Sat 05:22:52 PM 34.9678 -116.5344 39° Northeast 161 185 9,600  Climbing Los Angeles Center
Sat 05:23:52 PM 35.0033 -116.4992 41° Northeast 161 185 9,500 -50 Descending Los Angeles Center
Sat 05:24:52 PM 35.0367 -116.4636 41° Northeast 161 185 9,500  Level Los Angeles Center
Sat 05:25:53 PM 35.0703 -116.4283 41° Northeast 161 185 9,500  Level Los Angeles Center
Sat 05:26:53 PM 35.1036 -116.3931 41° Northeast 161 185 9,500  Level Los Angeles Center
Sat 05:27:52 PM 35.1372 -116.3575 41° Northeast 161 185 9,500  Level Los Angeles Center
Sat 05:28:52 PM 35.1686 -116.3244 39° Northeast 161 185 9,500  Level Los Angeles Center
Sat 05:29:53 PM 35.2019 -116.2917 56° Northeast 161 185 9,500 50 Level Los Angeles Center
Sat 05:30:52 PM 35.2272 -116.2458 67° East 156 180 9,600  Climbing Los Angeles Center
Sat 05:31:52 PM 35.2458 -116.1925 51° Northeast 156 180 9,500 -50 Descending Los Angeles Center
Sat 05:32:52 PM 35.2731 -116.1517 49° Northeast 156 180 9,500  Level Los Angeles Center
Sat 05:33:52 PM 35.3003 -116.1136 47° Northeast 150 173 9,500  Level Los Angeles Center
Sat 05:34:52 PM 35.3294 -116.0753 51° Northeast 150 173 9,500  Level Los Angeles Center
Sat 05:35:52 PM 35.3564 -116.0347 51° Northeast 150 173 9,500  Level Los Angeles Center
Sat 05:36:52 PM 35.3836 -115.9939 53° Northeast 150 173 9,500  Level Los Angeles Center
Sat 05:37:52 PM 35.4086 -115.9531 50° Northeast 150 173 9,500  Level Los Angeles Center
Sat 05:38:52 PM 35.4378 -115.9097 52° Northeast 150 173 9,500  Level Los Angeles Center
Sat 05:39:52 PM 35.4586 -115.8764 48° Northeast 155 178 9,500 50 Level Los Angeles Center
Sat 05:40:52 PM 35.4939 -115.8278 52° Northeast 160 184 9,600  Climbing Los Angeles Center
Sat 05:41:52 PM 35.5250 -115.7792 45° Northeast 160 184 9,500  Descending Los Angeles Center
Sat 05:42:52 PM 35.5542 -115.7433 49° Northeast 160 184 9,600 50 Climbing Los Angeles Center
Sat 05:43:52 PM 35.5833 -115.7025 49° Northeast 160 184 9,600 -50 Level Los Angeles Center
Sat 05:44:52 PM 35.6122 -115.6614 47° Northeast 160 184 9,500  Descending Los Angeles Center
Sat 05:45:52 PM 35.6414 -115.6231 53° Northeast 160 184 9,600  Climbing Los Angeles Center
Sat 05:46:52 PM 35.6683 -115.5792 53° Northeast 160 184 9,500 -100 Descending Los Angeles Center

Login

Don't have an account? Register now (free) for customized features, flight alerts, and more!